createdAt,value
2019-05-21T00:00:19.251Z,28.30
2019-05-21T00:02:49.952Z,27.87
2019-05-21T00:05:19.435Z,27.90
2019-05-21T00:07:48.009Z,29.00
2019-05-21T00:10:16.637Z,28.65
2019-05-21T00:12:45.201Z,28.00
2019-05-21T00:15:14.052Z,28.75
2019-05-21T00:17:44.180Z,28.10
2019-05-21T00:20:13.982Z,29.87
2019-05-21T00:22:44.353Z,27.60
2019-05-21T00:25:16.932Z,28.75
2019-05-21T00:27:43.575Z,29.32
2019-05-21T00:30:49.849Z,28.35
2019-05-21T00:33:54.888Z,27.10
2019-05-21T00:37:01.650Z,27.48
2019-05-21T00:40:06.714Z,28.92
2019-05-21T00:42:38.286Z,27.50
2019-05-21T00:45:11.914Z,29.67
2019-05-21T00:50:13.339Z,26.95
2019-05-21T00:52:41.909Z,27.10
2019-05-21T00:55:10.483Z,25.35
2019-05-21T00:57:40.848Z,27.95
2019-05-21T01:00:11.013Z,27.48
2019-05-21T01:02:39.740Z,25.80
2019-05-21T01:05:08.290Z,28.50
2019-05-21T01:07:36.874Z,27.97
2019-05-21T01:10:08.432Z,30.17
2019-05-21T01:12:38.313Z,28.57
2019-05-21T01:15:08.856Z,29.45
2019-05-21T01:17:37.452Z,28.00
2019-05-21T01:20:07.633Z,28.05
2019-05-21T01:22:37.885Z,29.52
2019-05-21T01:25:08.462Z,29.77
2019-05-21T01:27:36.940Z,30.43
2019-05-21T01:30:09.651Z,30.50
2019-05-21T01:32:38.142Z,30.03
2019-05-21T01:35:16.831Z,28.77
2019-05-21T01:37:38.195Z,31.13
2019-05-21T01:40:07.488Z,30.05
2019-05-21T01:42:37.158Z,30.35
2019-05-21T01:45:06.877Z,30.73
2019-05-21T01:47:38.035Z,31.35
2019-05-21T01:50:06.663Z,30.85
2019-05-21T01:52:35.214Z,31.77
2019-05-21T01:55:04.064Z,31.37
2019-05-21T01:57:37.484Z,34.92
2019-05-21T02:00:07.044Z,34.18
2019-05-21T02:02:35.566Z,33.78
2019-05-21T02:05:07.813Z,30.32
2019-05-21T02:07:36.795Z,28.95
2019-05-21T02:10:09.469Z,28.23
2019-05-21T02:12:38.001Z,27.57
2019-05-21T02:15:07.179Z,27.60
2019-05-21T02:17:36.776Z,29.30
2019-05-21T02:20:06.274Z,29.27
2019-05-21T02:22:34.728Z,26.87
2019-05-21T02:25:07.438Z,24.98
2019-05-21T02:27:38.778Z,25.80
2019-05-21T02:30:11.577Z,23.42
2019-05-21T02:32:47.998Z,24.03
2019-05-21T02:35:16.617Z,23.50
2019-05-21T02:37:49.580Z,24.65
2019-05-21T02:40:19.490Z,25.33
2019-05-21T02:42:50.918Z,25.40
2019-05-21T02:45:19.453Z,26.02
2019-05-21T02:47:50.206Z,26.75
2019-05-21T02:50:19.969Z,25.82
2019-05-21T02:52:50.066Z,22.82
2019-05-21T02:55:19.721Z,23.42
2019-05-21T02:57:48.322Z,21.65
2019-05-21T03:00:25.702Z,22.60
2019-05-21T03:02:55.293Z,23.73
2019-05-21T03:05:23.789Z,23.20
2019-05-21T03:07:53.241Z,24.05
2019-05-21T03:10:21.805Z,24.37
2019-05-21T03:12:51.894Z,23.77
2019-05-21T03:15:21.721Z,23.20
2019-05-21T03:17:54.640Z,23.07
2019-05-21T03:20:23.142Z,25.43
2019-05-21T03:22:51.679Z,25.52
2019-05-21T03:25:20.164Z,25.68
2019-05-21T03:27:48.757Z,25.82
2019-05-21T03:30:19.781Z,24.50
2019-05-21T03:32:49.983Z,26.97
2019-05-21T03:35:19.270Z,26.48
2019-05-21T03:37:50.898Z,26.75
2019-05-21T03:40:22.677Z,26.50
2019-05-21T03:42:51.148Z,26.00
2019-05-21T03:45:21.255Z,27.50
2019-05-21T03:47:52.029Z,26.40
2019-05-21T03:50:20.618Z,25.75
2019-05-21T03:52:49.943Z,25.10
2019-05-21T03:55:18.484Z,24.27
2019-05-21T03:57:47.018Z,25.68
2019-05-21T04:00:17.011Z,26.52
2019-05-21T04:02:45.523Z,27.02
2019-05-21T04:05:24.875Z,27.25
2019-05-21T04:07:53.815Z,26.15
2019-05-21T04:10:23.998Z,28.47
2019-05-21T04:13:10.506Z,28.45
2019-05-21T04:15:44.928Z,31.73
2019-05-21T04:18:21.187Z,31.30
2019-05-21T04:20:51.933Z,33.80
2019-05-21T04:23:23.025Z,33.63
2019-05-21T04:25:51.734Z,33.80
2019-05-21T04:28:20.303Z,32.63
2019-05-21T04:30:48.997Z,31.42
2019-05-21T04:33:19.256Z,27.93
2019-05-21T04:35:48.051Z,28.60
2019-05-21T04:38:16.580Z,30.12
2019-05-21T04:40:46.651Z,29.05
2019-05-21T04:43:15.377Z,29.57
2019-05-21T04:45:46.967Z,28.87
2019-05-21T04:48:15.516Z,26.05
2019-05-21T04:50:44.878Z,24.90
2019-05-21T04:53:13.407Z,27.32
2019-05-21T04:55:43.270Z,25.72
2019-05-21T04:58:11.814Z,26.80
2019-05-21T05:00:40.483Z,26.90
2019-05-21T05:03:10.757Z,27.22
2019-05-21T05:05:41.657Z,26.50
2019-05-21T05:08:10.205Z,29.02
2019-05-21T05:10:38.747Z,27.90
2019-05-21T05:13:07.598Z,26.75
2019-05-21T05:15:37.906Z,27.87
2019-05-21T05:18:09.934Z,25.75
2019-05-21T05:20:39.868Z,26.75
2019-05-21T05:23:10.063Z,25.15
2019-05-21T05:25:39.263Z,26.07
2019-05-21T05:28:07.739Z,26.60
2019-05-21T05:30:36.288Z,25.27
2019-05-21T05:33:04.973Z,24.20
2019-05-21T05:35:35.045Z,25.90
2019-05-21T05:38:05.435Z,24.70
2019-05-21T05:40:33.993Z,26.25
2019-05-21T05:43:02.782Z,26.07
2019-05-21T05:45:32.804Z,27.15
2019-05-21T05:48:02.304Z,30.45
2019-05-21T05:50:35.196Z,29.80
2019-05-21T05:53:03.802Z,30.00
2019-05-21T05:55:32.347Z,30.97
2019-05-21T05:58:00.842Z,27.62
2019-05-21T06:00:30.427Z,27.45
2019-05-21T06:02:59.856Z,25.15
2019-05-21T06:05:28.388Z,21.42
2019-05-21T06:08:00.118Z,20.02
2019-05-21T06:10:27.223Z,21.02
2019-05-21T06:12:56.968Z,20.97
2019-05-21T06:15:25.529Z,20.02
2019-05-21T06:17:54.044Z,19.70
2019-05-21T06:20:24.222Z,20.27
2019-05-21T06:22:52.734Z,20.77
2019-05-21T06:25:22.351Z,21.27
2019-05-21T06:27:52.433Z,22.07
2019-05-21T06:30:21.131Z,23.60
2019-05-21T06:32:49.687Z,23.80
2019-05-21T06:35:18.572Z,26.17
2019-05-21T06:37:47.099Z,26.93
2019-05-21T06:40:17.323Z,24.77
2019-05-21T06:42:50.433Z,24.90
2019-05-21T06:45:16.601Z,24.43
2019-05-21T06:47:45.109Z,22.58
2019-05-21T06:50:13.975Z,22.93
2019-05-21T06:52:42.721Z,23.77
2019-05-21T06:55:12.007Z,22.22
2019-05-21T06:57:40.474Z,23.50
2019-05-21T07:00:09.932Z,21.45
2019-05-21T07:02:38.440Z,20.67
2019-05-21T07:05:08.371Z,21.77
2019-05-21T07:07:36.887Z,21.27
2019-05-21T07:10:08.572Z,22.62
2019-05-21T07:12:38.237Z,21.12
2019-05-21T07:15:07.374Z,21.50
2019-05-21T07:17:36.041Z,21.23
2019-05-21T07:20:06.506Z,21.77
2019-05-21T07:22:35.025Z,20.82
2019-05-21T07:25:05.269Z,20.88
2019-05-21T07:27:35.045Z,22.32
2019-05-21T07:30:03.772Z,21.50
2019-05-21T07:32:32.340Z,22.53
2019-05-21T07:35:00.880Z,22.82
2019-05-21T07:37:32.163Z,23.63
2019-05-21T07:40:00.757Z,23.50
2019-05-21T07:42:30.823Z,23.75
2019-05-21T07:44:59.351Z,24.05
2019-05-21T07:47:27.992Z,25.60
2019-05-21T07:49:56.508Z,22.87
2019-05-21T07:52:25.561Z,23.60
2019-05-21T07:54:54.047Z,22.07
2019-05-21T07:57:23.599Z,23.98
2019-05-21T07:59:52.164Z,22.65
2019-05-21T08:02:20.735Z,21.23
2019-05-21T08:04:50.360Z,21.77
2019-05-21T08:07:20.729Z,21.50
2019-05-21T08:09:49.202Z,21.62
2019-05-21T08:12:37.429Z,20.08
2019-05-21T08:14:53.608Z,19.12
2019-05-21T08:17:22.094Z,18.65
2019-05-21T08:19:52.192Z,19.40
2019-05-21T08:22:21.960Z,19.48
2019-05-21T08:24:50.640Z,20.15
2019-05-21T08:27:19.184Z,19.57
2019-05-21T08:29:50.570Z,20.45
2019-05-21T08:32:19.446Z,20.02
2019-05-21T08:34:50.168Z,19.75
2019-05-21T08:37:18.647Z,20.80
2019-05-21T08:39:47.107Z,20.65
2019-05-21T08:42:15.569Z,21.02
2019-05-21T08:44:45.348Z,19.73
2019-05-21T08:47:15.400Z,17.77
2019-05-21T08:49:45.252Z,16.97
2019-05-21T08:52:13.853Z,17.62
2019-05-21T08:54:56.238Z,17.50
2019-05-21T08:57:23.133Z,18.15
2019-05-21T08:59:51.739Z,17.80
2019-05-21T09:02:20.281Z,18.07
2019-05-21T09:04:50.684Z,16.30
2019-05-21T09:07:20.290Z,16.90
2019-05-21T09:09:51.386Z,18.02
2019-05-21T09:12:18.966Z,17.70
2019-05-21T09:14:50.624Z,17.85
2019-05-21T09:17:22.087Z,16.95
2019-05-21T09:19:50.605Z,16.65
2019-05-21T09:22:19.062Z,16.70
2019-05-21T09:24:49.153Z,16.40
2019-05-21T09:27:17.850Z,16.67
2019-05-21T09:29:47.596Z,17.45
2019-05-21T09:32:21.044Z,17.70
2019-05-21T09:34:49.675Z,15.57
2019-05-21T09:37:20.637Z,15.63
2019-05-21T09:39:52.253Z,15.45
2019-05-21T09:42:23.332Z,16.23
2019-05-21T09:44:51.811Z,16.45
2019-05-21T09:47:21.610Z,14.68
2019-05-21T09:49:50.645Z,15.65
2019-05-21T09:52:20.248Z,16.82
2019-05-21T09:54:49.842Z,15.18
2019-05-21T09:57:26.866Z,14.80
2019-05-21T10:00:03.932Z,14.65
2019-05-21T10:02:36.514Z,15.80
2019-05-21T10:05:06.204Z,13.43
2019-05-21T10:07:39.959Z,14.55
2019-05-21T10:10:09.677Z,13.10
2019-05-21T10:12:38.247Z,13.68
2019-05-21T10:15:11.643Z,13.83
2019-05-21T10:17:41.430Z,14.53
2019-05-21T10:20:10.211Z,12.98
2019-05-21T10:22:38.697Z,13.40
2019-05-21T10:25:07.422Z,13.00
2019-05-21T10:27:40.966Z,12.82
2019-05-21T10:30:11.140Z,12.47
2019-05-21T10:32:39.744Z,12.07
2019-05-21T10:35:09.044Z,11.90
2019-05-21T10:37:53.738Z,12.13
2019-05-21T10:40:10.004Z,12.25
2019-05-21T10:42:38.543Z,12.53
2019-05-21T10:45:07.618Z,12.63
2019-05-21T10:47:36.352Z,12.75
2019-05-21T10:50:08.763Z,11.73
2019-05-21T10:52:38.497Z,11.85
2019-05-21T10:55:11.442Z,11.48
2019-05-21T10:57:40.244Z,11.63
2019-05-21T11:00:14.649Z,13.43
2019-05-21T11:02:45.063Z,13.18
2019-05-21T11:05:28.681Z,11.78
2019-05-21T11:07:55.283Z,11.60
2019-05-21T11:10:23.779Z,12.47
2019-05-21T11:12:53.467Z,11.85
2019-05-21T11:15:23.067Z,12.45
2019-05-21T11:18:09.073Z,13.80
2019-05-21T11:20:22.096Z,12.95
2019-05-21T11:22:52.186Z,12.68
2019-05-21T11:25:21.524Z,12.40
2019-05-21T11:27:50.189Z,12.10
2019-05-21T11:30:20.316Z,11.03
2019-05-21T11:32:49.870Z,11.30
2019-05-21T11:35:18.551Z,11.63
2019-05-21T11:37:47.976Z,11.80
2019-05-21T11:40:17.467Z,12.73
2019-05-21T11:42:53.419Z,12.43
2019-05-21T11:45:32.457Z,12.63
2019-05-21T11:47:56.716Z,13.62
2019-05-21T11:50:25.348Z,11.93
2019-05-21T11:52:54.382Z,12.47
2019-05-21T11:55:23.338Z,11.57
2019-05-21T11:57:51.972Z,12.25
2019-05-21T12:00:22.236Z,11.00
2019-05-21T12:02:53.949Z,10.13
2019-05-21T12:05:22.470Z,10.93
2019-05-21T12:07:51.007Z,11.15
2019-05-21T12:10:20.446Z,11.83
2019-05-21T12:12:51.503Z,13.32
2019-05-21T12:15:20.190Z,13.98
2019-05-21T12:17:53.357Z,13.30
2019-05-21T12:20:36.107Z,13.95
2019-05-21T12:22:52.372Z,13.70
2019-05-21T12:25:21.180Z,13.28
2019-05-21T12:27:50.906Z,12.73
2019-05-21T12:30:22.328Z,11.73
2019-05-21T12:32:50.891Z,13.88
2019-05-21T12:35:20.697Z,13.13
2019-05-21T12:37:54.368Z,13.18
2019-05-21T12:42:50.793Z,13.45
2019-05-21T12:45:19.444Z,12.40
2019-05-21T12:47:50.715Z,12.43
2019-05-21T12:50:27.233Z,12.23
2019-05-21T12:52:57.323Z,12.07
2019-05-21T12:55:27.913Z,12.88
2019-05-21T12:57:58.380Z,11.83
2019-05-21T13:00:34.188Z,12.23
2019-05-21T13:03:02.822Z,11.50
2019-05-21T13:05:31.330Z,11.50
2019-05-21T13:08:00.160Z,11.78
2019-05-21T13:10:28.936Z,11.70
2019-05-21T13:12:57.446Z,12.43
2019-05-21T13:15:27.561Z,13.00
2019-05-21T13:17:56.029Z,13.97
2019-05-21T13:20:27.425Z,12.80
2019-05-21T13:22:59.588Z,12.30
2019-05-21T13:25:28.149Z,13.03
2019-05-21T13:27:57.765Z,12.73
2019-05-21T13:30:26.720Z,13.30
2019-05-21T13:32:55.212Z,13.83
2019-05-21T13:35:23.842Z,15.00
2019-05-21T13:37:52.430Z,16.07
2019-05-21T13:40:24.071Z,17.23
2019-05-21T13:42:53.825Z,17.40
2019-05-21T13:45:22.380Z,17.40
2019-05-21T13:47:53.271Z,16.73
2019-05-21T13:50:22.260Z,17.02
2019-05-21T13:52:53.375Z,16.87
2019-05-21T13:55:24.632Z,16.67
2019-05-21T13:57:57.567Z,16.10
2019-05-21T14:00:39.499Z,15.53
2019-05-21T14:03:08.043Z,15.65
2019-05-21T14:05:37.084Z,15.13
2019-05-21T14:08:07.417Z,14.63
2019-05-21T14:10:37.430Z,15.55
2019-05-21T14:13:06.307Z,14.73
2019-05-21T14:15:34.928Z,15.85
2019-05-21T14:18:07.725Z,16.67
2019-05-21T14:20:36.254Z,16.43
2019-05-21T14:23:06.357Z,17.40
2019-05-21T14:25:38.093Z,17.00
2019-05-21T14:28:06.616Z,17.57
2019-05-21T14:30:35.207Z,17.30
2019-05-21T14:33:03.837Z,17.75
2019-05-21T14:35:33.558Z,16.55
2019-05-21T14:38:02.120Z,16.83
2019-05-21T14:40:32.675Z,18.15
2019-05-21T14:43:01.471Z,18.57
2019-05-21T14:45:33.969Z,18.82
2019-05-21T14:48:01.749Z,18.82
2019-05-21T14:50:30.339Z,17.10
2019-05-21T14:52:58.973Z,19.70
2019-05-21T14:55:29.088Z,19.12
2019-05-21T14:57:59.027Z,20.32
2019-05-21T15:00:37.047Z,19.62
2019-05-21T15:03:05.994Z,19.45
2019-05-21T15:05:35.607Z,18.25
2019-05-21T15:08:06.579Z,18.25
2019-05-21T15:10:48.172Z,18.75
2019-05-21T15:13:06.776Z,19.05
2019-05-21T15:15:36.319Z,20.17
2019-05-21T15:18:05.603Z,19.62
2019-05-21T15:20:52.317Z,20.48
2019-05-21T15:23:23.896Z,20.12
2019-05-21T15:25:53.762Z,19.32
2019-05-21T15:28:22.304Z,20.30
2019-05-21T15:30:50.813Z,20.27
2019-05-21T15:33:19.409Z,19.50
2019-05-21T15:35:48.122Z,19.55
2019-05-21T15:38:16.637Z,19.12
2019-05-21T15:40:46.243Z,19.82
2019-05-21T15:43:16.885Z,19.56
2019-05-21T15:45:45.599Z,19.67
2019-05-21T15:48:14.164Z,19.38
2019-05-21T15:50:43.980Z,19.82
2019-05-21T15:53:15.525Z,17.37
2019-05-21T15:55:46.581Z,18.40
2019-05-21T15:58:16.606Z,17.55
2019-05-21T16:00:46.592Z,19.95
2019-05-21T16:03:15.152Z,18.98
2019-05-21T16:05:43.671Z,19.82
2019-05-21T16:08:12.218Z,18.65
2019-05-21T16:10:40.684Z,20.15
2019-05-21T16:13:09.356Z,18.45
2019-05-21T16:15:40.834Z,20.82
2019-05-21T16:18:17.069Z,19.70
2019-05-21T16:20:45.660Z,20.60
2019-05-21T16:23:14.119Z,18.90
2019-05-21T16:25:44.108Z,21.40
2019-05-21T16:28:12.696Z,20.00
2019-05-21T16:30:41.245Z,21.77
2019-05-21T16:33:12.098Z,21.80
2019-05-21T16:35:42.485Z,20.65
2019-05-21T16:38:11.014Z,20.75
2019-05-21T16:40:41.044Z,21.25
2019-05-21T16:43:09.532Z,20.85
2019-05-21T16:45:38.071Z,21.35
2019-05-21T16:48:06.861Z,21.23
2019-05-21T16:50:36.300Z,21.70
2019-05-21T16:53:04.900Z,21.93
2019-05-21T16:55:34.971Z,22.70
2019-05-21T16:58:04.508Z,21.50
2019-05-21T17:00:33.193Z,20.52
2019-05-21T17:03:01.679Z,21.37
2019-05-21T17:05:30.221Z,22.13
2019-05-21T17:07:58.761Z,21.57
2019-05-21T17:10:29.451Z,21.27
2019-05-21T17:12:59.447Z,19.82
2019-05-21T17:15:27.914Z,22.77
2019-05-21T17:17:56.412Z,23.22
2019-05-21T17:20:25.009Z,23.70
2019-05-21T17:22:53.597Z,23.53
2019-05-21T17:25:23.390Z,24.30
2019-05-21T17:27:53.714Z,22.93
2019-05-21T17:30:22.261Z,23.38
2019-05-21T17:32:50.880Z,23.40
2019-05-21T17:35:19.412Z,24.55
2019-05-21T17:37:48.013Z,25.52
2019-05-21T17:40:16.831Z,26.20
2019-05-21T17:42:45.320Z,25.55
2019-05-21T17:45:14.130Z,25.50
2019-05-21T17:47:42.761Z,24.02
2019-05-21T17:50:14.696Z,24.37
2019-05-21T17:52:43.173Z,25.62
2019-05-21T17:55:13.065Z,24.57
2019-05-21T17:57:44.580Z,23.95
2019-05-21T18:00:13.674Z,22.75
2019-05-21T18:02:42.219Z,24.37
2019-05-21T18:05:12.092Z,25.48
2019-05-21T18:07:41.765Z,23.60
2019-05-21T18:10:11.182Z,23.92
2019-05-21T18:12:39.849Z,23.65
2019-05-21T18:15:11.423Z,26.62
2019-05-21T18:17:42.711Z,24.87
2019-05-21T18:20:15.025Z,24.43
2019-05-21T18:22:45.303Z,22.50
2019-05-21T18:25:15.185Z,24.10
2019-05-21T18:27:43.804Z,25.27
2019-05-21T18:30:13.118Z,24.60
2019-05-21T18:32:41.756Z,26.90
2019-05-21T18:35:12.854Z,24.80
2019-05-21T18:37:43.307Z,25.05
2019-05-21T18:40:12.279Z,22.57
2019-05-21T18:42:40.810Z,20.23
2019-05-21T18:45:10.941Z,20.45
2019-05-21T18:47:41.262Z,17.17
2019-05-21T18:50:10.384Z,17.95
2019-05-21T18:52:39.018Z,18.65
2019-05-21T18:55:11.767Z,17.25
2019-05-21T18:57:41.361Z,16.67
2019-05-21T19:00:11.352Z,17.17
2019-05-21T19:02:39.877Z,17.37
2019-05-21T19:05:11.311Z,16.93
2019-05-21T19:07:40.160Z,15.23
2019-05-21T19:10:10.143Z,14.75
2019-05-21T19:12:41.482Z,13.75
2019-05-21T19:15:11.792Z,15.17
2019-05-21T19:17:40.996Z,15.35
2019-05-21T19:20:10.354Z,15.52
2019-05-21T19:22:38.909Z,16.52
2019-05-21T19:25:08.567Z,17.55
2019-05-21T19:27:37.739Z,18.25
2019-05-21T19:30:08.580Z,18.02
2019-05-21T19:32:38.142Z,20.20
2019-05-21T19:35:07.015Z,22.82
2019-05-21T19:37:35.597Z,22.45
2019-05-21T19:40:05.985Z,26.90
2019-05-21T19:42:34.684Z,27.85
2019-05-21T19:45:06.757Z,27.42
2019-05-21T19:47:35.350Z,29.00
2019-05-21T19:50:07.384Z,28.12
2019-05-21T19:52:37.942Z,28.00
2019-05-21T19:55:07.310Z,26.90
2019-05-21T19:57:38.458Z,29.23
2019-05-21T20:00:09.430Z,26.87
2019-05-21T20:02:38.545Z,27.42
2019-05-21T20:05:11.852Z,26.07
2019-05-21T20:07:41.114Z,26.55
2019-05-21T20:10:11.469Z,27.77
2019-05-21T20:12:40.191Z,27.42
2019-05-21T20:15:11.323Z,28.55
2019-05-21T20:17:42.129Z,26.12
2019-05-21T20:20:14.246Z,25.82
2019-05-21T20:22:43.769Z,25.62
2019-05-21T20:25:13.316Z,25.27
2019-05-21T20:27:41.936Z,24.72
2019-05-21T20:30:14.128Z,26.32
2019-05-21T20:32:44.379Z,24.23
2019-05-21T20:35:15.799Z,24.63
2019-05-21T20:37:47.501Z,25.82
2019-05-21T20:40:18.652Z,24.27
2019-05-21T20:42:51.238Z,22.57
2019-05-21T20:45:21.568Z,24.52
2019-05-21T20:47:51.207Z,23.52
2019-05-21T20:50:21.919Z,24.13
2019-05-21T20:52:50.945Z,24.18
2019-05-21T20:55:21.211Z,23.70
2019-05-21T20:57:49.875Z,24.80
2019-05-21T21:00:23.115Z,24.30
2019-05-21T21:05:27.145Z,22.30
2019-05-21T21:07:56.558Z,22.13
2019-05-21T21:10:25.109Z,17.45
2019-05-21T21:12:54.144Z,15.20
2019-05-21T21:15:25.869Z,13.45
2019-05-21T21:17:54.357Z,11.35
2019-05-21T21:20:24.437Z,11.18
2019-05-21T21:22:53.096Z,10.23
2019-05-21T21:25:22.575Z,10.55
2019-05-21T21:27:54.970Z,12.95
2019-05-21T21:30:25.043Z,10.58
2019-05-21T21:32:59.100Z,12.13
2019-05-21T21:35:28.559Z,12.93
2019-05-21T21:37:59.698Z,12.65
2019-05-21T21:40:28.423Z,13.32
2019-05-21T21:42:58.556Z,12.88
2019-05-21T21:45:28.552Z,13.68
2019-05-21T21:47:57.481Z,13.83
2019-05-21T21:50:28.406Z,13.35
2019-05-21T21:52:57.222Z,13.28
2019-05-21T21:55:27.572Z,13.18
2019-05-21T21:57:56.061Z,14.05
2019-05-21T22:00:41.770Z,13.68
2019-05-21T22:03:11.195Z,14.38
2019-05-21T22:05:40.507Z,15.03
2019-05-21T22:08:12.238Z,13.86
2019-05-21T22:10:40.738Z,13.45
2019-05-21T22:13:09.554Z,14.83
2019-05-21T22:15:38.717Z,12.68
2019-05-21T22:18:11.801Z,13.90
2019-05-21T22:20:38.393Z,13.98
2019-05-21T22:23:08.817Z,14.30
2019-05-21T22:25:37.284Z,13.85
2019-05-21T22:28:07.033Z,13.53
2019-05-21T22:30:38.685Z,13.15
2019-05-21T22:33:07.461Z,13.62
2019-05-21T22:35:38.505Z,13.30
2019-05-21T22:38:07.770Z,13.88
2019-05-21T22:40:36.771Z,14.63
2019-05-21T22:43:06.335Z,13.75
2019-05-21T22:45:35.046Z,13.58
2019-05-21T22:48:04.652Z,13.80
2019-05-21T22:50:33.198Z,14.03
2019-05-21T22:53:04.863Z,13.88
2019-05-21T22:55:33.343Z,13.95
2019-05-21T22:58:01.851Z,13.62
2019-05-21T23:00:32.036Z,13.60
2019-05-21T23:03:00.886Z,12.55
2019-05-21T23:05:29.782Z,13.05
2019-05-21T23:07:58.358Z,12.65
2019-05-21T23:10:30.132Z,12.88
2019-05-21T23:13:00.105Z,11.48
2019-05-21T23:15:31.489Z,11.97
2019-05-21T23:18:00.102Z,11.40
2019-05-21T23:20:30.278Z,12.23
2019-05-21T23:23:02.566Z,11.60
2019-05-21T23:25:32.227Z,11.07
2019-05-21T23:28:03.236Z,11.43
2019-05-21T23:30:31.920Z,10.60
2019-05-21T23:33:00.467Z,9.85
2019-05-21T23:35:28.988Z,8.98
2019-05-21T23:38:01.417Z,9.70
2019-05-21T23:40:31.430Z,9.00
2019-05-21T23:43:00.829Z,10.60
2019-05-21T23:45:29.435Z,9.18
2019-05-21T23:48:01.229Z,9.28
2019-05-21T23:50:30.258Z,8.83
2019-05-21T23:52:58.956Z,8.80
2019-05-21T23:55:27.771Z,9.85
2019-05-21T23:57:56.351Z,8.18
